createdAt,value
2018-02-08T00:01:36.078Z,31.37
2018-02-08T00:04:03.607Z,31.73
2018-02-08T00:06:31.300Z,32.03
2018-02-08T00:08:58.950Z,30.30
2018-02-08T00:11:27.028Z,30.30
2018-02-08T00:13:54.842Z,29.45
2018-02-08T00:16:23.371Z,30.98
2018-02-08T00:18:52.168Z,30.92
2018-02-08T00:21:20.809Z,31.58
2018-02-08T00:23:51.340Z,30.83
2018-02-08T00:26:20.084Z,30.90
2018-02-08T00:28:50.356Z,31.67
2018-02-08T00:31:18.217Z,30.12
2018-02-08T00:33:45.986Z,29.33
2018-02-08T00:36:13.503Z,31.37
2018-02-08T00:38:41.804Z,30.95
2018-02-08T00:41:09.332Z,31.25
2018-02-08T00:43:36.876Z,29.27
2018-02-08T00:46:04.944Z,28.90
2018-02-08T00:48:32.483Z,29.40
2018-02-08T00:51:00.131Z,29.10
2018-02-08T00:53:28.373Z,29.17
2018-02-08T00:55:56.258Z,27.95
2018-02-08T00:58:25.070Z,26.85
2018-02-08T01:00:53.212Z,29.87
2018-02-08T01:03:24.822Z,29.20
2018-02-08T01:05:53.505Z,27.80
2018-02-08T01:08:22.384Z,27.52
2018-02-08T01:10:50.345Z,26.33
2018-02-08T01:13:17.935Z,27.50
2018-02-08T01:15:45.492Z,26.33
2018-02-08T01:18:13.736Z,26.60
2018-02-08T01:20:41.288Z,26.65
2018-02-08T01:23:08.812Z,26.98
2018-02-08T01:25:36.390Z,25.67
2018-02-08T01:28:03.909Z,26.27
2018-02-08T01:30:31.465Z,25.92
2018-02-08T01:32:59.651Z,24.98
2018-02-08T01:35:27.759Z,26.08
2018-02-08T01:37:55.368Z,27.17
2018-02-08T01:40:24.128Z,26.62
2018-02-08T01:42:52.489Z,25.73
2018-02-08T01:45:21.402Z,27.00
2018-02-08T01:47:51.325Z,26.20
2018-02-08T01:50:21.264Z,27.15
2018-02-08T01:52:50.588Z,24.55
2018-02-08T01:55:19.738Z,26.83
2018-02-08T01:57:51.191Z,25.08
2018-02-08T02:00:19.789Z,26.27
2018-02-08T02:02:47.443Z,25.98
2018-02-08T02:05:14.983Z,28.23
2018-02-08T02:07:42.521Z,26.75
2018-02-08T02:10:10.809Z,26.50
2018-02-08T02:12:39.116Z,26.98
2018-02-08T02:15:06.641Z,26.15
2018-02-08T02:17:35.636Z,26.27
2018-02-08T02:20:03.929Z,25.95
2018-02-08T02:22:31.472Z,26.37
2018-02-08T02:25:00.188Z,27.87
2018-02-08T02:27:28.603Z,25.20
2018-02-08T02:29:57.600Z,24.27
2018-02-08T02:32:27.125Z,24.60
2018-02-08T02:34:55.960Z,23.77
2018-02-08T02:37:24.539Z,25.48
2018-02-08T02:39:53.027Z,24.02
2018-02-08T02:42:21.557Z,23.27
2018-02-08T02:44:50.810Z,22.83
2018-02-08T02:47:19.187Z,23.48
2018-02-08T02:49:47.581Z,25.10
2018-02-08T02:52:16.197Z,24.10
2018-02-08T02:54:43.744Z,23.83
2018-02-08T02:57:11.276Z,24.00
2018-02-08T02:59:38.809Z,24.23
2018-02-08T03:02:06.340Z,22.42
2018-02-08T03:04:33.884Z,24.33
2018-02-08T03:07:04.068Z,22.92
2018-02-08T03:09:32.118Z,22.92
2018-02-08T03:12:01.119Z,22.50
2018-02-08T03:14:29.742Z,23.90
2018-02-08T03:16:57.916Z,23.42
2018-02-08T03:19:26.582Z,23.58
2018-02-08T03:21:55.579Z,22.92
2018-02-08T03:24:25.504Z,24.30
2018-02-08T03:26:53.747Z,21.60
2018-02-08T03:29:22.867Z,23.50
2018-02-08T03:31:51.871Z,23.60
2018-02-08T03:34:21.301Z,23.70
2018-02-08T03:36:52.018Z,23.30
2018-02-08T03:39:21.300Z,24.05
2018-02-08T03:41:51.274Z,25.08
2018-02-08T03:44:20.206Z,24.35
2018-02-08T03:46:48.073Z,23.85
2018-02-08T03:49:15.696Z,22.45
2018-02-08T03:51:43.235Z,23.90
2018-02-08T03:54:10.864Z,23.33
2018-02-08T03:56:38.408Z,21.75
2018-02-08T03:59:05.934Z,23.60
2018-02-08T04:01:33.489Z,23.35
2018-02-08T04:04:01.017Z,21.92
2018-02-08T04:06:28.918Z,23.45
2018-02-08T04:08:57.141Z,23.35
2018-02-08T04:11:25.084Z,22.85
2018-02-08T04:13:53.281Z,22.85
2018-02-08T04:16:23.192Z,23.62
2018-02-08T04:18:51.975Z,25.10
2018-02-08T04:21:21.330Z,25.02
2018-02-08T04:23:51.168Z,22.67
2018-02-08T04:26:21.004Z,22.60
2018-02-08T04:28:49.110Z,21.50
2018-02-08T04:31:17.670Z,21.10
2018-02-08T04:33:46.576Z,21.75
2018-02-08T04:36:14.209Z,21.90
2018-02-08T04:38:53.871Z,22.85
2018-02-08T04:41:33.286Z,22.92
2018-02-08T04:44:23.175Z,24.65
2018-02-08T04:47:04.805Z,20.37
2018-02-08T04:49:32.378Z,21.98
2018-02-08T04:52:00.245Z,23.20
2018-02-08T04:54:28.441Z,21.62
2018-02-08T04:56:57.018Z,24.65
2018-02-08T04:59:25.305Z,24.02
2018-02-08T05:01:54.413Z,24.15
2018-02-08T05:04:22.876Z,22.90
2018-02-08T05:06:52.459Z,26.25
2018-02-08T05:09:23.624Z,22.20
2018-02-08T05:11:52.796Z,22.17
2018-02-08T05:14:22.216Z,24.05
2018-02-08T05:16:52.810Z,22.30
2018-02-08T05:19:23.447Z,23.95
2018-02-08T05:21:52.987Z,24.52
2018-02-08T05:24:22.458Z,23.58
2018-02-08T05:26:51.753Z,22.42
2018-02-08T05:29:21.077Z,24.70
2018-02-08T05:31:50.497Z,25.73
2018-02-08T05:34:20.814Z,24.50
2018-02-08T05:36:50.290Z,25.00
2018-02-08T05:39:18.310Z,21.67
2018-02-08T05:41:46.740Z,23.45
2018-02-08T05:44:14.797Z,24.35
2018-02-08T05:46:42.343Z,24.08
2018-02-08T05:49:10.796Z,23.33
2018-02-08T05:51:38.339Z,24.12
2018-02-08T05:54:05.888Z,23.62
2018-02-08T05:56:33.418Z,24.83
2018-02-08T05:59:01.913Z,24.63
2018-02-08T06:01:29.865Z,25.55
2018-02-08T06:03:57.750Z,23.80
2018-02-08T06:06:25.823Z,23.98
2018-02-08T06:08:53.590Z,22.37
2018-02-08T06:11:21.704Z,23.48
2018-02-08T06:13:51.884Z,22.50
2018-02-08T06:16:21.083Z,23.23
2018-02-08T06:18:50.181Z,24.05
2018-02-08T06:21:19.566Z,23.83
2018-02-08T06:23:49.323Z,23.30
2018-02-08T06:26:16.958Z,24.02
2018-02-08T06:28:44.629Z,23.33
2018-02-08T06:31:12.165Z,23.48
2018-02-08T06:33:40.167Z,24.20
2018-02-08T06:36:07.690Z,25.80
2018-02-08T06:38:35.212Z,25.88
2018-02-08T06:41:02.773Z,23.40
2018-02-08T06:43:30.786Z,25.62
2018-02-08T06:45:58.563Z,24.98
2018-02-08T06:48:26.184Z,24.35
2018-02-08T06:50:54.571Z,24.58
2018-02-08T06:53:22.370Z,24.60
2018-02-08T06:55:50.649Z,25.50
2018-02-08T06:58:19.639Z,25.62
2018-02-08T07:00:47.234Z,25.45
2018-02-08T07:03:14.774Z,23.27
2018-02-08T07:05:42.422Z,23.92
2018-02-08T07:08:09.964Z,25.62
2018-02-08T07:10:37.509Z,26.62
2018-02-08T07:13:05.031Z,28.08
2018-02-08T07:15:32.889Z,25.08
2018-02-08T07:18:00.420Z,26.58
2018-02-08T07:20:27.981Z,25.42
2018-02-08T07:22:55.575Z,24.58
2018-02-08T07:25:24.201Z,26.40
2018-02-08T07:27:52.352Z,23.92
2018-02-08T07:30:20.793Z,26.12
2018-02-08T07:32:48.380Z,27.50
2018-02-08T07:35:15.971Z,25.17
2018-02-08T07:37:44.278Z,26.45
2018-02-08T07:40:11.805Z,24.92
2018-02-08T07:42:39.374Z,25.10
2018-02-08T07:45:08.155Z,24.40
2018-02-08T07:47:36.494Z,25.77
2018-02-08T07:50:04.020Z,27.62
2018-02-08T07:52:31.613Z,25.88
2018-02-08T07:54:59.177Z,24.37
2018-02-08T07:57:27.002Z,26.62
2018-02-08T07:59:54.713Z,25.20
2018-02-08T08:02:23.164Z,27.02
2018-02-08T08:04:50.836Z,26.60
2018-02-08T08:07:18.593Z,26.42
2018-02-08T08:09:47.186Z,25.52
2018-02-08T08:12:14.717Z,24.70
2018-02-08T08:14:42.332Z,24.75
2018-02-08T08:17:09.870Z,23.92
2018-02-08T08:19:37.430Z,25.92
2018-02-08T08:22:04.965Z,24.92
2018-02-08T08:24:32.517Z,24.87
2018-02-08T08:27:00.610Z,25.23
2018-02-08T08:29:28.157Z,24.98
2018-02-08T08:31:55.932Z,25.37
2018-02-08T08:34:23.803Z,25.50
2018-02-08T08:36:51.452Z,26.13
2018-02-08T08:39:19.436Z,25.50
2018-02-08T08:41:47.401Z,25.63
2018-02-08T08:44:16.616Z,24.00
2018-02-08T08:46:44.328Z,25.65
2018-02-08T08:49:13.153Z,24.80
2018-02-08T08:51:42.163Z,25.93
2018-02-08T08:54:09.702Z,25.00
2018-02-08T08:56:37.588Z,24.70
2018-02-08T08:59:05.120Z,24.77
2018-02-08T09:01:32.697Z,25.57
2018-02-08T09:04:00.234Z,25.27
2018-02-08T09:06:28.174Z,21.90
2018-02-08T09:08:57.012Z,24.70
2018-02-08T09:11:25.504Z,23.43
2018-02-08T09:13:53.612Z,25.80
2018-02-08T09:16:22.523Z,24.00
2018-02-08T09:18:50.299Z,24.40
2018-02-08T09:21:18.626Z,24.53
2018-02-08T09:23:46.397Z,24.87
2018-02-08T09:26:14.125Z,25.63
2018-02-08T09:28:42.209Z,25.17
2018-02-08T09:31:09.765Z,25.63
2018-02-08T09:33:37.328Z,25.93
2018-02-08T09:36:04.874Z,25.33
2018-02-08T09:38:32.419Z,25.13
2018-02-08T09:41:00.763Z,23.83
2018-02-08T09:43:28.504Z,24.67
2018-02-08T09:45:56.216Z,24.40
2018-02-08T09:48:24.938Z,25.00
2018-02-08T09:50:52.560Z,25.20
2018-02-08T09:53:21.135Z,21.60
2018-02-08T09:55:50.351Z,22.97
2018-02-08T09:58:18.050Z,22.43
2018-02-08T10:00:45.622Z,22.20
2018-02-08T10:03:13.193Z,22.10
2018-02-08T10:05:40.724Z,20.33
2018-02-08T10:08:08.261Z,19.30
2018-02-08T10:10:35.824Z,21.33
2018-02-08T10:13:03.353Z,21.17
2018-02-08T10:15:30.933Z,22.13
2018-02-08T10:17:59.446Z,21.77
2018-02-08T10:20:27.149Z,22.47
2018-02-08T10:22:55.045Z,19.10
2018-02-08T10:25:23.048Z,18.63
2018-02-08T10:27:51.324Z,18.43
2018-02-08T10:30:19.220Z,19.60
2018-02-08T10:32:46.789Z,18.50
2018-02-08T10:35:14.338Z,20.07
2018-02-08T10:37:41.901Z,20.97
2018-02-08T10:40:09.449Z,19.60
2018-02-08T10:42:36.978Z,20.33
2018-02-08T10:45:04.514Z,16.07
2018-02-08T10:47:33.067Z,16.83
2018-02-08T10:50:00.631Z,18.27
2018-02-08T10:52:28.375Z,17.73
2018-02-08T10:54:56.331Z,17.53
2018-02-08T10:57:23.920Z,16.83
2018-02-08T10:59:51.981Z,16.23
2018-02-08T11:02:20.373Z,17.83
2018-02-08T11:04:48.208Z,17.33
2018-02-08T11:07:15.743Z,17.10
2018-02-08T11:09:44.461Z,18.03
2018-02-08T11:12:11.990Z,15.57
2018-02-08T11:14:39.517Z,15.47
2018-02-08T11:17:07.057Z,15.60
2018-02-08T11:19:34.573Z,16.03
2018-02-08T11:22:02.111Z,16.57
2018-02-08T11:24:30.018Z,15.83
2018-02-08T11:26:57.681Z,16.80
2018-02-08T11:29:25.547Z,15.33
2018-02-08T11:31:53.517Z,16.00
2018-02-08T11:34:21.487Z,16.23
2018-02-08T11:36:49.968Z,16.13
2018-02-08T11:39:17.892Z,15.10
2018-02-08T11:41:45.609Z,14.57
2018-02-08T11:44:13.141Z,17.13
2018-02-08T11:46:40.692Z,15.20
2018-02-08T11:49:08.982Z,17.43
2018-02-08T11:51:36.548Z,17.00
2018-02-08T11:54:04.090Z,14.37
2018-02-08T11:56:32.701Z,15.37
2018-02-08T11:59:00.466Z,15.00
2018-02-08T12:01:28.056Z,16.67
2018-02-08T12:03:55.796Z,16.87
2018-02-08T12:06:24.376Z,14.37
2018-02-08T12:08:53.405Z,14.37
2018-02-08T12:11:20.928Z,13.93
2018-02-08T12:13:48.448Z,13.53
2018-02-08T12:16:16.803Z,12.20
2018-02-08T12:18:44.429Z,12.67
2018-02-08T12:21:11.991Z,12.43
2018-02-08T12:23:40.053Z,12.17
2018-02-08T12:26:07.957Z,12.07
2018-02-08T12:28:36.066Z,13.60
2018-02-08T12:31:05.300Z,8.87
2018-02-08T12:33:33.280Z,9.27
2018-02-08T12:36:01.536Z,10.23
2018-02-08T12:38:29.509Z,10.43
2018-02-08T12:40:57.487Z,11.13
2018-02-08T12:43:26.610Z,9.77
2018-02-08T12:45:55.877Z,10.20
2018-02-08T12:48:24.218Z,10.43
2018-02-08T12:50:51.757Z,9.70
2018-02-08T12:53:19.311Z,10.10
2018-02-08T12:55:47.513Z,10.73
2018-02-08T12:58:15.809Z,10.00
2018-02-08T13:00:43.715Z,10.13
2018-02-08T13:03:11.251Z,11.93
2018-02-08T13:05:39.145Z,12.60
2018-02-08T13:08:07.316Z,12.77
2018-02-08T13:10:35.702Z,13.20
2018-02-08T13:13:03.348Z,12.67
2018-02-08T13:15:30.934Z,12.97
2018-02-08T13:17:58.761Z,13.27
2018-02-08T13:20:27.254Z,13.70
2018-02-08T13:22:55.126Z,11.67
2018-02-08T13:25:23.914Z,12.50
2018-02-08T13:27:52.297Z,12.27
2018-02-08T13:30:21.293Z,12.13
2018-02-08T13:32:49.668Z,12.80
2018-02-08T13:35:17.732Z,13.70
2018-02-08T13:37:46.434Z,13.97
2018-02-08T13:40:17.919Z,14.83
2018-02-08T13:42:48.397Z,13.33
2018-02-08T13:45:18.000Z,13.83
2018-02-08T13:51:00.748Z,12.37
2018-02-08T13:53:33.925Z,12.77
2018-02-08T13:56:07.116Z,14.50
2018-02-08T13:58:54.965Z,13.43
2018-02-08T14:01:22.716Z,13.60
2018-02-08T14:03:50.507Z,14.23
2018-02-08T14:06:20.414Z,12.60
2018-02-08T14:08:48.741Z,13.30
2018-02-08T14:11:16.752Z,11.53
2018-02-08T14:13:45.959Z,12.90
2018-02-08T14:16:14.439Z,12.87
2018-02-08T14:18:42.056Z,13.10
2018-02-08T14:21:10.726Z,12.47
2018-02-08T14:23:38.448Z,13.07
2018-02-08T14:26:06.068Z,12.23
2018-02-08T14:28:33.621Z,12.63
2018-02-08T14:31:01.419Z,11.70
2018-02-08T14:33:29.506Z,12.23
2018-02-08T14:35:57.227Z,13.13
2018-02-08T14:38:26.268Z,11.80
2018-02-08T14:40:55.162Z,12.67
2018-02-08T14:43:23.133Z,12.97
2018-02-08T14:45:51.008Z,11.33
2018-02-08T14:48:19.121Z,13.17
2018-02-08T14:50:46.740Z,12.37
2018-02-08T14:53:14.260Z,11.93
2018-02-08T14:55:42.797Z,12.40
2018-02-08T14:58:10.371Z,11.23
2018-02-08T15:00:37.994Z,11.57
2018-02-08T15:03:05.503Z,11.87
2018-02-08T15:05:33.037Z,11.87
2018-02-08T15:08:00.761Z,36.63
2018-02-08T15:10:28.352Z,13.87
2018-02-08T15:12:56.098Z,12.83
2018-02-08T15:15:23.818Z,11.87
2018-02-08T15:17:52.632Z,15.30
2018-02-08T15:20:20.625Z,13.97
2018-02-08T15:22:48.392Z,15.23
2018-02-08T15:25:15.968Z,11.97
2018-02-08T15:27:43.506Z,13.43
2018-02-08T15:30:11.022Z,14.20
2018-02-08T15:32:38.568Z,19.47
2018-02-08T15:35:06.081Z,19.60
2018-02-08T15:37:33.646Z,14.37
2018-02-08T15:40:01.166Z,15.03
2018-02-08T15:42:29.544Z,18.17
2018-02-08T15:44:57.457Z,14.63
2018-02-08T15:47:25.183Z,15.43
2018-02-08T15:49:53.907Z,15.73
2018-02-08T15:52:21.672Z,15.80
2018-02-08T15:54:49.336Z,16.60
2018-02-08T15:57:17.202Z,16.60
2018-02-08T15:59:44.816Z,15.80
2018-02-08T16:02:13.146Z,16.17
2018-02-08T16:04:40.671Z,16.83
2018-02-08T16:07:08.228Z,16.50
2018-02-08T16:09:36.553Z,16.90
2018-02-08T16:12:04.187Z,16.73
2018-02-08T16:14:31.904Z,17.43
2018-02-08T16:16:59.474Z,17.97
2018-02-08T16:19:27.156Z,16.57
2018-02-08T16:21:55.624Z,18.40
2018-02-08T16:24:23.639Z,17.97
2018-02-08T16:26:51.941Z,19.27
2018-02-08T16:29:20.803Z,18.47
2018-02-08T16:31:48.472Z,17.80
2018-02-08T16:34:16.236Z,18.93
2018-02-08T16:36:43.829Z,19.60
2018-02-08T16:39:11.617Z,18.33
2018-02-08T16:41:39.324Z,18.50
2018-02-08T16:44:06.856Z,18.87
2018-02-08T16:46:35.161Z,20.70
2018-02-08T16:49:02.692Z,19.60
2018-02-08T16:51:30.213Z,19.30
2018-02-08T16:53:58.251Z,19.83
2018-02-08T16:56:25.860Z,21.10
2018-02-08T16:58:53.895Z,20.93
2018-02-08T17:01:22.280Z,21.70
2018-02-08T17:03:51.071Z,21.37
2018-02-08T17:06:19.032Z,22.07
2018-02-08T17:08:47.689Z,20.13
2018-02-08T17:11:15.359Z,22.47
2018-02-08T17:13:42.895Z,21.43
2018-02-08T17:16:12.125Z,22.03
2018-02-08T17:18:39.670Z,22.87
2018-02-08T17:21:07.350Z,24.27
2018-02-08T17:23:34.875Z,22.73
2018-02-08T17:26:03.190Z,22.80
2018-02-08T17:28:30.727Z,24.63
2018-02-08T17:30:58.544Z,24.87
2018-02-08T17:33:26.413Z,25.65
2018-02-08T17:35:55.047Z,25.95
2018-02-08T17:38:23.240Z,24.80
2018-02-08T17:40:51.721Z,24.87
2018-02-08T17:43:20.461Z,25.20
2018-02-08T17:45:48.830Z,26.83
2018-02-08T17:48:16.518Z,25.70
2018-02-08T17:50:45.356Z,25.40
2018-02-08T17:53:13.936Z,24.87
2018-02-08T17:55:41.637Z,26.33
2018-02-08T17:58:09.469Z,24.70
2018-02-08T18:00:37.202Z,25.10
2018-02-08T18:03:04.769Z,25.33
2018-02-08T18:05:32.317Z,25.42
2018-02-08T18:07:59.845Z,25.40
2018-02-08T18:10:27.509Z,26.08
2018-02-08T18:12:56.182Z,28.90
2018-02-08T18:15:24.834Z,26.77
2018-02-08T18:17:53.248Z,26.20
2018-02-08T18:20:21.888Z,24.90
2018-02-08T18:22:49.696Z,23.90
2018-02-08T18:25:17.227Z,23.75
2018-02-08T18:27:44.944Z,23.12
2018-02-08T18:30:12.506Z,21.48
2018-02-08T18:32:41.748Z,20.33
2018-02-08T18:35:09.357Z,20.35
2018-02-08T18:37:37.772Z,18.97
2018-02-08T18:40:05.460Z,19.52
2018-02-08T18:42:33.030Z,19.93
2018-02-08T18:45:01.621Z,19.83
2018-02-08T18:47:29.390Z,20.40
2018-02-08T18:49:57.132Z,20.57
2018-02-08T18:52:25.506Z,19.55
2018-02-08T18:54:54.634Z,19.90
2018-02-08T18:57:23.128Z,20.20
2018-02-08T18:59:50.972Z,19.15
2018-02-08T19:02:20.688Z,19.02
2018-02-08T19:04:48.848Z,19.15
2018-02-08T19:07:16.521Z,19.73
2018-02-08T19:09:44.176Z,19.35
2018-02-08T19:12:11.860Z,17.97
2018-02-08T19:14:40.301Z,22.27
2018-02-08T19:17:08.204Z,19.93
2018-02-08T19:19:35.741Z,22.33
2018-02-08T19:22:03.279Z,26.70
2018-02-08T19:24:31.058Z,22.10
2018-02-08T19:26:58.782Z,23.83
2018-02-08T19:29:27.511Z,19.15
2018-02-08T19:31:55.173Z,17.15
2018-02-08T19:34:23.720Z,19.15
2018-02-08T19:36:52.340Z,19.90
2018-02-08T19:39:20.976Z,21.23
2018-02-08T19:41:49.624Z,21.42
2018-02-08T19:44:17.273Z,20.08
2018-02-08T19:46:44.798Z,20.77
2018-02-08T19:49:13.146Z,20.83
2018-02-08T19:51:40.694Z,21.98
2018-02-08T19:54:08.262Z,19.85
2018-02-08T19:56:35.799Z,19.77
2018-02-08T19:59:03.337Z,18.62
2018-02-08T20:01:30.891Z,21.37
2018-02-08T20:03:58.442Z,18.98
2018-02-08T20:06:26.633Z,20.70
2018-02-08T20:08:54.229Z,19.55
2018-02-08T20:11:22.273Z,20.85
2018-02-08T20:13:50.041Z,20.02
2018-02-08T20:16:17.703Z,20.48
2018-02-08T20:18:45.244Z,19.77
2018-02-08T20:21:12.805Z,19.55
2018-02-08T20:23:40.487Z,20.50
2018-02-08T20:26:08.016Z,18.98
2018-02-08T20:28:36.312Z,19.83
2018-02-08T20:31:09.425Z,20.23
2018-02-08T20:33:36.956Z,19.87
2018-02-08T20:36:04.537Z,19.30
2018-02-08T20:38:32.077Z,20.37
2018-02-08T20:40:59.650Z,19.80
2018-02-08T20:43:31.976Z,20.23
2018-02-08T20:45:59.569Z,18.67
2018-02-08T20:48:27.260Z,19.62
2018-02-08T20:50:54.795Z,19.23
2018-02-08T20:53:23.142Z,19.50
2018-02-08T20:55:51.460Z,18.77
2018-02-08T20:58:19.009Z,17.62
2018-02-08T21:00:46.905Z,18.33
2018-02-08T21:03:14.761Z,18.52
2018-02-08T21:05:42.492Z,18.98
2018-02-08T21:08:10.858Z,16.90
2018-02-08T21:10:39.373Z,17.87
2018-02-08T21:13:07.767Z,17.15
2018-02-08T21:15:35.422Z,16.33
2018-02-08T21:18:03.808Z,15.40
2018-02-08T21:20:31.993Z,15.45
2018-02-08T21:23:00.464Z,15.43
2018-02-08T21:25:28.040Z,15.13
2018-02-08T21:27:55.790Z,14.90
2018-02-08T21:30:23.349Z,14.30
2018-02-08T21:32:50.911Z,14.02
2018-02-08T21:35:18.485Z,11.68
2018-02-08T21:37:46.344Z,11.38
2018-02-08T21:40:13.885Z,9.85
2018-02-08T21:42:41.436Z,9.32
2018-02-08T21:45:09.431Z,11.48
2018-02-08T21:47:37.497Z,11.40
2018-02-08T21:50:05.774Z,11.65
2018-02-08T21:52:33.743Z,11.18
2018-02-08T21:55:01.509Z,10.25
2018-02-08T21:57:29.136Z,10.35
2018-02-08T21:59:57.755Z,9.68
2018-02-08T22:02:25.936Z,9.02
2018-02-08T22:04:53.514Z,8.35
2018-02-08T22:07:21.053Z,7.78
2018-02-08T22:09:48.597Z,8.02
2018-02-08T22:12:16.715Z,7.97
2018-02-08T22:14:44.360Z,8.18
2018-02-08T22:17:12.244Z,7.40
2018-02-08T22:19:40.396Z,7.30
2018-02-08T22:22:08.155Z,6.15
2018-02-08T22:24:35.759Z,6.87
2018-02-08T22:27:04.924Z,6.78
2018-02-08T22:29:34.106Z,6.22
2018-02-08T22:32:04.148Z,6.05
2018-02-08T22:34:33.444Z,6.78
2018-02-08T22:37:01.168Z,6.60
2018-02-08T22:39:29.011Z,6.28
2018-02-08T22:41:56.585Z,5.82
2018-02-08T22:44:24.406Z,5.75
2018-02-08T22:46:52.758Z,6.10
2018-02-08T22:49:20.285Z,5.90
2018-02-08T22:51:48.604Z,5.53
2018-02-08T22:54:16.172Z,6.03
2018-02-08T22:56:43.688Z,6.80
2018-02-08T22:59:12.305Z,6.05
2018-02-08T23:01:40.836Z,5.80
2018-02-08T23:04:10.005Z,5.95
2018-02-08T23:06:38.037Z,5.62
2018-02-08T23:09:06.027Z,4.87
2018-02-08T23:11:33.996Z,5.45
2018-02-08T23:14:02.304Z,5.70
2018-02-08T23:16:29.940Z,5.72
2018-02-08T23:18:57.988Z,5.70
2018-02-08T23:21:25.671Z,5.40
2018-02-08T23:23:54.156Z,4.85
2018-02-08T23:26:21.720Z,4.03
2018-02-08T23:28:49.276Z,4.07
2018-02-08T23:31:16.795Z,4.57
2018-02-08T23:33:45.108Z,4.20
2018-02-08T23:36:12.639Z,3.85
2018-02-08T23:38:41.133Z,3.92
2018-02-08T23:41:09.218Z,3.70
2018-02-08T23:43:38.012Z,4.07
2018-02-08T23:46:06.197Z,3.83
2018-02-08T23:48:34.973Z,4.00
2018-02-08T23:51:04.072Z,3.42
2018-02-08T23:53:33.378Z,3.83
2018-02-08T23:56:02.365Z,4.32
2018-02-08T23:58:30.131Z,3.87
